This is the latest recevied weather packets stored in our database for station/object AA7VG. If no packets are shown the sender has not sent any weather packets the latest 10 day(s).
| Time | Temp. | Humidity | Pressure | Rain* | Wind** | Luminosity | Snow |
|---|---|---|---|---|---|---|---|
| 1778077289 | 2.78° C | 55% | 1018.5 hPa | 0 mm | - | - | - |
| 1778076986 | 2.78° C | 55% | 1018.5 hPa | 0 mm | - | - | - |
| 1778076685 | 2.78° C | 54% | 1018.4 hPa | 0 mm | - | - | - |
| 1778076382 | 2.78° C | 54% | 1018.4 hPa | 0 mm | - | - | - |
| 1778076079 | 2.22° C | 56% | 1018.6 hPa | 0 mm | - | - | - |
| 1778075776 | 1.11° C | 60% | 1018.3 hPa | 0 mm | - | - | - |
| 1778075472 | 0° C | 62% | 1018.5 hPa | 0 mm | - | - | - |
| 1778075169 | -0.56° C | 64% | 1018.5 hPa | 0 mm | - | - | - |
| 1778074864 | -0.56° C | 65% | 1018.6 hPa | 0 mm | - | - | - |
| 1778074562 | -0.56° C | 65% | 1018.5 hPa | 0 mm | - | - | - |
| 1778074259 | -0.56° C | 66% | 1018.5 hPa | 0 mm | - | - | - |
| 1778073956 | -1.11° C | 67% | 1018.4 hPa | 0 mm | - | - | - |
| 1778073653 | -1.11° C | 66% | 1018.7 hPa | 0 mm | - | - | - |
| 1778073350 | -0.56° C | 64% | 1018.4 hPa | 0 mm | - | - | - |
| 1778073047 | -1.11° C | 67% | 1018.3 hPa | 0 mm | - | - | - |
| 1778072744 | -1.67° C | 70% | 1018.6 hPa | 0 mm | - | - | - |
| 1778072441 | -2.22° C | 72% | 1018.3 hPa | 0 mm | - | - | - |
| 1778072139 | -2.78° C | 74% | 1018.3 hPa | 0 mm | - | - | - |
| 1778071837 | -3.33° C | 74% | 1018.4 hPa | 0 mm | - | - | - |
| 1778071534 | -3.33° C | 75% | 1018.4 hPa | 0 mm | - | - | - |
| 1778071232 | -3.33° C | 77% | 1018.3 hPa | 0 mm | - | - | - |
| 1778070929 | -3.89° C | 77% | 1018.2 hPa | 0 mm | - | - | - |
| 1778070628 | -3.89° C | 77% | 1018 hPa | 0 mm | - | - | - |
| 1778070324 | -3.89° C | 77% | 1018.3 hPa | 0 mm | - | - | - |
| 1778070022 | -3.89° C | 78% | 1018 hPa | 0 mm | - | - | - |
* Rain latest hour (hover to see other rain measurements)
** Current wind speed in m/s (hover to see current wind gust speed)